Time;durP1;ratioP1;P1;durP2;ratioP2;P2;SDS_P1;SDS_P2;PMS_P1;PMS_P2;Temp;Humidity;BMP_temperature;BMP_pressure;BME280_temperature;BME280_humidity;BME280_pressure;Samples;Min_cycle;Max_cycle;Signal;HPM_P1;HPM_P2
2021/04/18 00:01:26;;;;;;;42.88;27.70;;;11.30;63.80;;;;;;5051071;28;20420;-68
2021/04/18 00:04:31;;;;;;;45.35;30.05;;;11.30;63.60;;;;;;5051485;28;20052;-68
2021/04/18 00:07:35;;;;;;;44.55;26.25;;;11.40;62.40;;;;;;5050952;28;20388;-68
2021/04/18 00:10:40;;;;;;;55.05;32.63;;;11.40;60.50;;;;;;5050485;28;20048;-69
2021/04/18 00:13:45;;;;;;;49.67;31.25;;;11.30;63.80;;;;;;5050942;28;20036;-69
2021/04/18 00:16:49;;;;;;;49.40;32.78;;;11.30;64.20;;;;;;5050577;28;20048;-68
2021/04/18 00:19:53;;;;;;;48.15;30.88;;;11.30;64.20;;;;;;5051052;28;20040;-68
2021/04/18 00:22:57;;;;;;;48.15;31.45;;;11.20;63.00;;;;;;5050674;28;20052;-68
2021/04/18 00:26:01;;;;;;;47.75;30.38;;;11.20;64.30;;;;;;5051258;28;20040;-68
2021/04/18 00:29:07;;;;;;;47.42;30.45;;;11.20;65.30;;;;;;5050425;28;20052;-69
2021/04/18 00:32:11;;;;;;;41.25;27.30;;;11.10;64.00;;;;;;5050816;28;20048;-66
2021/04/18 00:35:16;;;;;;;43.33;28.20;;;11.10;64.10;;;;;;5050912;28;20047;-67
2021/04/18 00:38:21;;;;;;;43.03;27.77;;;11.00;64.20;;;;;;5051193;28;20384;-68
2021/04/18 00:41:25;;;;;;;41.28;25.05;;;11.00;64.80;;;;;;5051120;28;20044;-67
2021/04/18 00:44:29;;;;;;;39.42;24.33;;;11.10;65.10;;;;;;5054257;28;20064;-68
2021/04/18 00:47:35;;;;;;;32.55;21.80;;;11.00;63.70;;;;;;5053635;28;20392;-68
2021/04/18 00:50:40;;;;;;;37.63;21.80;;;11.10;62.40;;;;;;5053777;28;20056;-68
2021/04/18 00:53:44;;;;;;;32.45;21.13;;;11.10;61.60;;;;;;5054324;28;20040;-68
2021/04/18 00:56:48;;;;;;;36.80;22.77;;;11.10;62.00;;;;;;5054219;28;20048;-68
2021/04/18 00:59:52;;;;;;;36.15;22.23;;;11.10;61.70;;;;;;5052999;28;20079;-68
2021/04/18 01:02:56;;;;;;;35.67;22.42;;;11.20;60.10;;;;;;5053367;28;20052;-68
2021/04/18 01:06:00;;;;;;;31.85;21.23;;;11.20;61.40;;;;;;5053324;28;20111;-68
2021/04/18 01:09:06;;;;;;;35.80;22.92;;;11.20;61.50;;;;;;5053189;28;20531;-68
2021/04/18 01:12:10;;;;;;;37.50;23.65;;;11.30;62.60;;;;;;5054216;28;20120;-68
2021/04/18 01:15:15;;;;;;;41.35;25.52;;;11.30;63.80;;;;;;5054019;28;20040;-68
2021/04/18 01:18:20;;;;;;;39.58;24.23;;;11.30;63.00;;;;;;5053057;28;20048;-68
2021/04/18 01:21:24;;;;;;;37.53;24.65;;;11.30;65.40;;;;;;5053587;28;20040;-68
2021/04/18 01:24:29;;;;;;;40.95;24.77;;;11.30;66.30;;;;;;5053666;28;20044;-68
2021/04/18 01:27:45;;;;;;;36.50;24.45;;;11.20;67.10;;;;;;5053826;28;20040;-68
2021/04/18 01:30:52;;;;;;;42.45;24.60;;;11.20;68.40;;;;;;5052706;28;20650;-66
2021/04/18 01:33:56;;;;;;;38.38;24.40;;;11.20;68.30;;;;;;5053485;28;20044;-68
2021/04/18 01:37:01;;;;;;;36.78;22.85;;;11.20;67.80;;;;;;5053270;28;20063;-68
2021/04/18 01:40:06;;;;;;;31.58;19.95;;;11.20;68.00;;;;;;5053375;28;20039;-67
2021/04/18 01:43:15;;;;;;;34.28;21.38;;;11.20;65.50;;;;;;5052606;28;20408;-67
2021/04/18 01:46:20;;;;;;;35.63;21.23;;;11.10;66.50;;;;;;5052191;28;20297;-67
2021/04/18 01:49:25;;;;;;;30.88;19.35;;;11.10;65.40;;;;;;5052611;28;20052;-67
2021/04/18 01:52:30;;;;;;;30.08;19.10;;;11.00;62.30;;;;;;5052433;28;20048;-68
2021/04/18 01:55:36;;;;;;;29.75;20.38;;;11.00;64.60;;;;;;5040974;28;20056;-68
2021/04/18 01:58:40;;;;;;;31.75;19.80;;;11.00;64.60;;;;;;5052263;28;20048;-67
2021/04/18 02:02:13;;;;;;;28.92;18.05;;;11.10;65.20;;;;;;5053220;28;20056;-68
2021/04/18 02:05:28;;;;;;;37.22;19.40;;;11.00;65.00;;;;;;5052317;28;20495;-68
2021/04/18 02:08:33;;;;;;;33.47;19.45;;;11.00;65.90;;;;;;5052277;28;20043;-68
2021/04/18 02:11:39;;;;;;;29.98;19.73;;;11.00;67.30;;;;;;5052247;28;20056;-68
2021/04/18 02:14:48;;;;;;;29.17;18.93;;;10.90;67.30;;;;;;5052836;28;20042;-68
2021/04/18 02:17:59;;;;;;;29.13;18.80;;;10.80;68.00;;;;;;5052120;28;20270;-68
2021/04/18 02:21:03;;;;;;;30.35;18.52;;;10.90;67.30;;;;;;5052787;28;20048;-68
2021/04/18 02:24:08;;;;;;;26.80;18.13;;;10.80;67.60;;;;;;5051770;28;20055;-67
2021/04/18 02:27:12;;;;;;;30.60;19.52;;;10.80;68.10;;;;;;5051589;28;20108;-67
2021/04/18 02:30:24;;;;;;;29.40;18.80;;;10.70;68.40;;;;;;5051607;28;20492;-67
2021/04/18 02:33:28;;;;;;;25.33;17.42;;;10.60;69.30;;;;;;5051711;28;20044;-69
2021/04/18 02:36:33;;;;;;;32.53;19.52;;;10.50;69.40;;;;;;5051373;28;20056;-68
2021/04/18 02:39:37;;;;;;;29.42;17.63;;;10.50;69.30;;;;;;5051946;28;20052;-67
2021/04/18 02:42:42;;;;;;;27.50;19.05;;;10.50;68.50;;;;;;5051561;28;20396;-67
2021/04/18 02:45:47;;;;;;;31.98;19.98;;;10.40;69.60;;;;;;5051416;28;20068;-68
2021/04/18 02:48:52;;;;;;;30.83;18.20;;;10.40;68.90;;;;;;5051211;28;20103;-68
2021/04/18 02:51:56;;;;;;;27.88;19.15;;;10.50;69.20;;;;;;5050998;28;20048;-68
2021/04/18 02:55:01;;;;;;;28.05;19.40;;;10.40;69.90;;;;;;5052256;28;20048;-68
2021/04/18 02:58:08;;;;;;;29.65;19.65;;;10.40;70.20;;;;;;5051322;28;20400;-68
2021/04/18 03:01:12;;;;;;;29.35;18.95;;;10.40;70.50;;;;;;5051421;28;20060;-68
2021/04/18 03:04:18;;;;;;;30.50;18.90;;;10.40;70.90;;;;;;5051666;28;20048;-68
2021/04/18 03:07:22;;;;;;;28.38;20.02;;;10.30;71.40;;;;;;5050507;28;20048;-67
2021/04/18 03:10:27;;;;;;;30.20;19.27;;;10.20;71.50;;;;;;5039503;28;20067;-67
2021/04/18 03:13:32;;;;;;;30.08;17.58;;;10.30;72.00;;;;;;5050847;28;20416;-68
2021/04/18 03:16:37;;;;;;;26.27;18.58;;;10.20;72.00;;;;;;5039408;28;20396;-67
2021/04/18 03:19:41;;;;;;;27.40;19.10;;;10.20;72.10;;;;;;5050656;28;20036;-67
2021/04/18 03:22:46;;;;;;;24.60;17.15;;;10.10;71.70;;;;;;5050706;28;20072;-68
2021/04/18 03:25:51;;;;;;;34.33;18.40;;;10.10;71.90;;;;;;5051239;28;20096;-67
2021/04/18 03:28:56;;;;;;;29.02;17.45;;;10.00;72.00;;;;;;5050263;28;20040;-67
2021/04/18 03:32:00;;;;;;;28.02;17.23;;;9.90;71.70;;;;;;5050455;28;20048;-67
2021/04/18 03:35:05;;;;;;;25.90;16.90;;;9.80;71.90;;;;;;5050821;28;20043;-67
2021/04/18 03:38:11;;;;;;;27.63;17.25;;;9.70;71.90;;;;;;5050666;28;20065;-67
2021/04/18 03:41:18;;;;;;;28.67;17.45;;;9.70;72.00;;;;;;5050281;28;20063;-67
2021/04/18 03:44:22;;;;;;;25.75;16.75;;;9.70;72.20;;;;;;5051153;28;20052;-67
2021/04/18 03:47:26;;;;;;;25.80;15.55;;;9.60;71.80;;;;;;5050142;28;20055;-66
2021/04/18 03:50:38;;;;;;;23.67;15.82;;;9.60;72.00;;;;;;5050689;28;20051;-67
2021/04/18 03:53:55;;;;;;;24.95;15.40;;;9.50;72.70;;;;;;5050468;28;20044;-67
2021/04/18 03:57:05;;;;;;;25.38;16.33;;;9.50;73.10;;;;;;5050601;28;20412;-68
2021/04/18 04:00:10;;;;;;;25.65;16.15;;;9.50;73.80;;;;;;5038762;28;20060;-67
2021/04/18 04:03:21;;;;;;;21.08;15.20;;;9.40;73.40;;;;;;5051217;28;20044;-68
2021/04/18 04:06:29;;;;;;;20.95;14.98;;;9.30;73.40;;;;;;5039334;28;20056;-68
2021/04/18 04:09:38;;;;;;;24.88;15.20;;;9.30;74.00;;;;;;5050635;28;20044;-68
2021/04/18 04:12:43;;;;;;;22.42;14.75;;;9.20;74.20;;;;;;5050338;28;20064;-68
2021/04/18 04:15:48;;;;;;;23.85;15.68;;;9.20;73.90;;;;;;5051208;28;20047;-68
2021/04/18 04:18:52;;;;;;;27.88;14.95;;;9.30;74.40;;;;;;5055277;28;20048;-67
2021/04/18 04:22:16;;;;;;;21.45;14.73;;;9.20;74.40;;;;;;5055946;28;20067;-68
2021/04/18 04:25:32;;;;;;;22.75;15.20;;;9.30;74.80;;;;;;5056733;28;20055;-69
2021/04/18 04:28:36;;;;;;;24.90;14.32;;;9.30;74.80;;;;;;5055442;28;20499;-69
2021/04/18 04:31:40;;;;;;;23.23;14.45;;;9.30;75.00;;;;;;5056895;28;20400;-68
2021/04/18 04:34:45;;;;;;;23.48;14.35;;;9.30;74.70;;;;;;5055191;28;20036;-69
2021/04/18 04:37:49;;;;;;;24.70;14.52;;;9.30;74.50;;;;;;5054809;28;20044;-67
2021/04/18 04:40:53;;;;;;;24.13;14.63;;;9.30;74.50;;;;;;5056194;28;20051;-67
2021/04/18 04:43:57;;;;;;;31.77;14.77;;;9.20;74.50;;;;;;5054958;28;20052;-68
2021/04/18 04:47:01;;;;;;;18.00;14.15;;;9.20;74.40;;;;;;5054801;28;20032;-68
2021/04/18 04:50:05;;;;;;;24.40;14.85;;;9.30;74.10;;;;;;5055120;28;20040;-67
2021/04/18 04:53:10;;;;;;;21.35;13.25;;;9.40;73.80;;;;;;5055618;28;20052;-68
2021/04/18 04:56:14;;;;;;;22.75;13.50;;;9.90;72.60;;;;;;5055123;28;20052;-68
2021/04/18 04:59:19;;;;;;;23.15;13.13;;;10.30;70.80;;;;;;5054121;28;20123;-69
2021/04/18 05:02:23;;;;;;;26.25;12.25;;;10.50;69.80;;;;;;5054126;28;20060;-68
2021/04/18 05:05:27;;;;;;;25.40;11.15;;;10.50;68.90;;;;;;5054637;28;20423;-68
2021/04/18 05:08:31;;;;;;;26.30;11.70;;;10.60;68.40;;;;;;5054906;28;20044;-68
2021/04/18 05:11:35;;;;;;;24.17;11.73;;;10.80;68.20;;;;;;5054858;28;20040;-69
2021/04/18 05:14:38;;;;;;;22.13;11.13;;;11.40;65.70;;;;;;5054743;28;20108;-69
2021/04/18 05:17:42;;;;;;;23.70;12.35;;;11.80;63.90;;;;;;5055426;28;20052;-68
2021/04/18 05:20:46;;;;;;;21.77;11.20;;;11.90;64.20;;;;;;5055631;28;20044;-68
2021/04/18 05:23:53;;;;;;;28.63;12.90;;;12.10;63.80;;;;;;5055601;28;20048;-67
2021/04/18 05:27:01;;;;;;;29.15;12.93;;;12.80;62.30;;;;;;5053559;28;20036;-67
2021/04/18 05:30:06;;;;;;;20.25;12.43;;;13.60;60.50;;;;;;5054174;28;20048;-68
2021/04/18 05:33:11;;;;;;;23.92;13.10;;;14.30;59.20;;;;;;5055446;28;20229;-69
2021/04/18 05:36:16;;;;;;;27.38;16.65;;;14.70;58.60;;;;;;5055196;28;20396;-69
2021/04/18 05:39:20;;;;;;;33.58;20.17;;;15.10;57.70;;;;;;5055735;28;20055;-68
2021/04/18 05:42:24;;;;;;;40.17;23.33;;;15.40;56.50;;;;;;5055302;28;20048;-68
2021/04/18 05:45:32;;;;;;;45.42;23.73;;;15.40;56.60;;;;;;5055294;28;20063;-70
2021/04/18 05:48:36;;;;;;;33.08;20.25;;;15.50;55.30;;;;;;5054839;28;20495;-68
2021/04/18 05:51:40;;;;;;;34.03;21.52;;;15.30;53.60;;;;;;5042063;28;20052;-68
2021/04/18 05:54:44;;;;;;;35.22;21.38;;;15.20;53.20;;;;;;5054601;28;20052;-68
2021/04/18 05:57:48;;;;;;;29.33;19.80;;;15.20;54.00;;;;;;5053549;28;20044;-68
2021/04/18 06:00:53;;;;;;;28.50;18.92;;;15.30;52.40;;;;;;5054828;28;20115;-69
2021/04/18 06:03:58;;;;;;;28.00;18.15;;;15.30;52.00;;;;;;5043175;28;20072;-70
2021/04/18 06:07:04;;;;;;;22.65;13.85;;;15.50;51.90;;;;;;5054154;28;20083;-67
2021/04/18 06:10:09;;;;;;;21.80;14.85;;;15.60;50.10;;;;;;5054361;28;20044;-68
2021/04/18 06:13:13;;;;;;;20.38;13.55;;;15.90;50.60;;;;;;5055638;28;20044;-67
2021/04/18 06:16:17;;;;;;;16.77;11.13;;;16.10;49.00;;;;;;5055231;28;20048;-68
2021/04/18 06:19:23;;;;;;;14.73;8.98;;;16.10;47.70;;;;;;5052529;28;20040;-63
2021/04/18 06:22:28;;;;;;;19.85;11.25;;;16.30;47.10;;;;;;5053174;28;20048;-64
2021/04/18 06:25:33;;;;;;;20.90;10.30;;;16.30;49.00;;;;;;5052831;28;20077;-63
2021/04/18 06:28:37;;;;;;;16.25;9.60;;;15.90;50.80;;;;;;5051820;28;20052;-62
2021/04/18 06:31:43;;;;;;;18.17;10.80;;;15.50;48.80;;;;;;5052219;28;20105;-62
2021/04/18 06:34:48;;;;;;;18.92;10.20;;;15.20;50.20;;;;;;5052753;28;20036;-62
2021/04/18 06:37:52;;;;;;;15.55;11.55;;;14.70;50.60;;;;;;5029818;28;20522;-61
2021/04/18 06:40:57;;;;;;;20.88;12.20;;;14.30;52.00;;;;;;5051307;28;20036;-60
2021/04/18 06:44:02;;;;;;;23.33;14.32;;;14.40;53.90;;;;;;5052252;28;20040;-61
2021/04/18 06:47:06;;;;;;;23.08;13.85;;;14.30;54.90;;;;;;5052187;28;20048;-61
2021/04/18 06:50:11;;;;;;;25.15;14.10;;;14.40;56.20;;;;;;5052153;28;20043;-61
2021/04/18 06:53:16;;;;;;;21.35;15.30;;;14.70;55.70;;;;;;5052277;28;20044;-60
2021/04/18 06:56:20;;;;;;;20.30;14.52;;;14.80;55.10;;;;;;5052164;28;20498;-64
2021/04/18 06:59:25;;;;;;;26.10;14.10;;;15.00;54.90;;;;;;5051873;28;20400;-60
2021/04/18 07:02:32;;;;;;;21.20;14.50;;;15.40;53.00;;;;;;5052289;28;20048;-61
2021/04/18 07:05:47;;;;;;;17.48;12.50;;;15.80;52.50;;;;;;5051907;28;20384;-60
2021/04/18 07:08:58;;;;;;;22.27;13.63;;;16.20;52.00;;;;;;5052096;28;20047;-61
2021/04/18 07:12:03;;;;;;;19.50;13.60;;;16.70;51.30;;;;;;5052001;28;20048;-60
2021/04/18 07:15:08;;;;;;;21.60;13.00;;;17.10;49.80;;;;;;5051589;28;20044;-60
2021/04/18 07:18:36;;;;;;;15.85;11.30;;;17.50;48.10;;;;;;5051336;28;20048;-61
2021/04/18 07:21:46;;;;;;;18.77;11.95;;;17.70;46.70;;;;;;5051573;28;20124;-61
2021/04/18 07:24:57;;;;;;;17.83;11.57;;;17.90;46.60;;;;;;5051667;28;20048;-60
2021/04/18 07:28:01;;;;;;;18.15;11.20;;;17.90;46.40;;;;;;5051616;28;20044;-60
2021/04/18 07:31:05;;;;;;;18.63;10.82;;;17.80;46.80;;;;;;5051718;28;20039;-61
2021/04/18 07:34:14;;;;;;;27.08;11.07;;;17.70;45.90;;;;;;5051593;28;20048;-60
2021/04/18 07:37:25;;;;;;;15.70;9.90;;;17.80;45.30;;;;;;5051547;28;20044;-61
2021/04/18 07:40:32;;;;;;;15.30;9.43;;;18.00;44.40;;;;;;5051592;28;20040;-62
2021/04/18 07:43:36;;;;;;;20.20;9.20;;;18.10;44.20;;;;;;5051354;28;20052;-60
2021/04/18 07:46:52;;;;;;;16.52;10.18;;;18.10;43.70;;;;;;5051579;28;20059;-61
2021/04/18 07:49:57;;;;;;;17.67;9.80;;;18.30;43.50;;;;;;5051106;28;20060;-61
2021/04/18 07:53:02;;;;;;;18.77;10.85;;;18.20;43.30;;;;;;5051055;28;20040;-61
2021/04/18 07:56:11;;;;;;;14.35;7.80;;;18.30;44.30;;;;;;5051421;28;20398;-61
2021/04/18 07:59:16;;;;;;;15.82;8.52;;;18.60;42.30;;;;;;5051274;28;20056;-60
2021/04/18 08:02:23;;;;;;;16.45;8.20;;;18.80;42.00;;;;;;5051571;28;20063;-61
2021/04/18 08:05:32;;;;;;;18.80;8.20;;;19.00;41.90;;;;;;5050720;28;20122;-60
2021/04/18 08:08:47;;;;;;;18.90;8.00;;;19.30;40.70;;;;;;5051187;28;20044;-59
2021/04/18 08:12:13;;;;;;;11.98;7.93;;;19.20;40.60;;;;;;5051441;28;20052;-60
2021/04/18 08:15:18;;;;;;;13.60;6.15;;;19.20;41.00;;;;;;5050853;28;20052;-61
2021/04/18 08:18:29;;;;;;;11.32;6.60;;;19.30;40.80;;;;;;5050145;28;20539;-59
2021/04/18 08:21:38;;;;;;;;;;;19.50;40.20;;;;;;5051119;28;20040;-60
2021/04/18 08:24:41;;;;;;;14.05;6.72;;;19.50;39.30;;;;;;5050079;28;19931;-60
2021/04/18 08:27:59;;;;;;;13.73;8.45;;;19.40;40.10;;;;;;5050055;28;20048;-61
2021/04/18 08:31:08;;;;;;;11.93;6.30;;;19.50;39.70;;;;;;5051497;28;20048;-61
2021/04/18 08:34:20;;;;;;;7.93;4.95;;;19.20;40.20;;;;;;5051036;28;20044;-61
2021/04/18 08:37:24;;;;;;;6.40;4.20;;;19.20;40.60;;;;;;5051096;28;20060;-61
2021/04/18 08:40:37;;;;;;;5.43;3.88;;;19.40;40.10;;;;;;5051062;28;20044;-60
2021/04/18 08:43:46;;;;;;;9.88;4.40;;;19.60;39.60;;;;;;5050799;28;20033;-59
2021/04/18 08:46:58;;;;;;;6.25;3.88;;;19.70;38.90;;;;;;5051085;28;20048;-61
2021/04/18 08:50:16;;;;;;;16.60;4.70;;;19.70;38.80;;;;;;5051011;28;20048;-62
2021/04/18 08:53:20;;;;;;;9.07;4.50;;;19.60;37.80;;;;;;5050997;28;20432;-61
2021/04/18 08:56:47;;;;;;;7.93;3.90;;;19.60;38.60;;;;;;5050884;28;20063;-61
2021/04/18 08:59:57;;;;;;;9.73;4.53;;;19.60;38.90;;;;;;5050183;28;20043;-61
2021/04/18 09:03:01;;;;;;;6.07;4.10;;;19.70;39.20;;;;;;5050734;28;20056;-60
2021/04/18 09:06:31;;;;;;;8.73;4.80;;;19.80;39.20;;;;;;5054274;28;20040;-61
2021/04/18 09:09:36;;;;;;;9.88;5.18;;;19.90;38.70;;;;;;5054139;28;20048;-60
2021/04/18 09:12:44;;;;;;;7.05;4.60;;;19.90;38.60;;;;;;5053993;28;20041;-60
2021/04/18 09:15:56;;;;;;;10.68;4.40;;;19.90;38.30;;;;;;5054213;28;20041;-61
2021/04/18 09:19:24;;;;;;;10.57;5.55;;;19.80;39.30;;;;;;5054293;28;20072;-59
2021/04/18 09:22:30;;;;;;;11.95;5.88;;;19.80;39.60;;;;;;5054044;28;20055;-62
2021/04/18 09:25:34;;;;;;;7.75;4.70;;;19.80;40.50;;;;;;5053576;28;20051;-61
2021/04/18 09:28:38;;;;;;;9.52;4.28;;;19.90;39.60;;;;;;5054004;28;20040;-61
2021/04/18 09:32:03;;;;;;;12.18;6.20;;;19.90;40.60;;;;;;5053470;28;20048;-61
2021/04/18 09:35:09;;;;;;;8.45;5.25;;;20.00;39.40;;;;;;5053732;28;20055;-59
2021/04/18 09:38:19;;;;;;;9.45;4.53;;;19.90;38.90;;;;;;5053652;28;20041;-59
2021/04/18 09:41:23;;;;;;;8.63;4.18;;;19.90;39.80;;;;;;5053886;28;20056;-60
2021/04/18 09:44:31;;;;;;;9.13;4.38;;;20.00;40.00;;;;;;5052511;28;20056;-61
2021/04/18 09:47:47;;;;;;;8.73;4.07;;;20.20;39.20;;;;;;5053457;28;20041;-61
2021/04/18 09:51:02;;;;;;;7.95;4.32;;;20.10;39.30;;;;;;5053600;28;20060;-60
2021/04/18 09:54:06;;;;;;;6.93;4.47;;;20.20;38.90;;;;;;5053577;28;20049;-61
2021/04/18 09:57:13;;;;;;;10.77;3.80;;;20.20;37.30;;;;;;5052299;28;20040;-61
2021/04/18 10:00:21;;;;;;;5.05;3.42;;;20.00;37.70;;;;;;5052934;28;20047;-61
2021/04/18 10:03:37;;;;;;;8.07;4.18;;;20.10;38.80;;;;;;5053234;28;20042;-61
2021/04/18 10:06:47;;;;;;;8.85;4.88;;;20.20;37.60;;;;;;5053197;28;20051;-60
2021/04/18 10:09:55;;;;;;;11.10;8.80;;;20.20;37.00;;;;;;5053310;28;20049;-61
2021/04/18 10:13:00;;;;;;;8.00;4.68;;;20.20;38.80;;;;;;5052865;28;20046;-61
2021/04/18 10:16:06;;;;;;;10.00;4.68;;;20.30;40.10;;;;;;5051761;28;20037;-61
2021/04/18 10:19:17;;;;;;;7.38;4.20;;;20.50;38.60;;;;;;5053062;28;20055;-61
2021/04/18 10:22:21;;;;;;;15.25;7.10;;;20.50;40.50;;;;;;5052889;28;20048;-62
2021/04/18 10:25:25;;;;;;;9.73;5.90;;;20.60;40.50;;;;;;5052597;28;20052;-62
2021/04/18 10:28:30;;;;;;;9.32;5.28;;;20.70;39.50;;;;;;5051935;28;20539;-60
2021/04/18 10:31:35;;;;;;;9.43;5.15;;;20.70;39.60;;;;;;5051905;28;20048;-60
2021/04/18 10:34:39;;;;;;;14.70;6.90;;;20.70;39.40;;;;;;5052531;28;20044;-61
2021/04/18 10:37:45;;;;;;;13.35;4.90;;;20.70;40.10;;;;;;5051652;28;20384;-61
2021/04/18 10:40:49;;;;;;;15.50;6.50;;;20.70;40.70;;;;;;5052353;28;20040;-60
2021/04/18 10:43:54;;;;;;;6.63;4.13;;;20.80;41.70;;;;;;5052188;28;20040;-61
2021/04/18 10:47:00;;;;;;;8.93;3.83;;;20.80;41.50;;;;;;5051670;28;20048;-62
2021/04/18 10:50:05;;;;;;;6.05;3.88;;;20.90;41.10;;;;;;5052573;28;20040;-60
2021/04/18 10:53:09;;;;;;;8.88;4.05;;;21.00;40.60;;;;;;5052389;28;20071;-62
2021/04/18 10:56:13;;;;;;;8.10;3.78;;;21.00;40.10;;;;;;5052306;28;20041;-60
2021/04/18 10:59:19;;;;;;;6.47;4.10;;;20.90;40.40;;;;;;5052068;28;20029;-61
2021/04/18 11:02:27;;;;;;;12.85;7.40;;;20.90;40.80;;;;;;5052013;28;20045;-60
2021/04/18 11:05:31;;;;;;;20.98;10.40;;;20.90;40.50;;;;;;5051722;28;20052;-59
2021/04/18 11:08:35;;;;;;;20.02;11.98;;;20.90;40.70;;;;;;5051879;28;20036;-59
2021/04/18 11:11:39;;;;;;;10.25;6.43;;;20.90;40.10;;;;;;5051376;28;20051;-61
2021/04/18 11:14:44;;;;;;;25.65;15.50;;;20.80;41.20;;;;;;5052071;28;20040;-60
2021/04/18 11:17:48;;;;;;;6.93;4.20;;;20.70;40.10;;;;;;5052197;28;20048;-59
2021/04/18 11:20:52;;;;;;;17.67;11.05;;;20.60;39.90;;;;;;5051215;28;20044;-61
2021/04/18 11:23:57;;;;;;;22.00;13.48;;;20.50;41.20;;;;;;5051928;28;20043;-61
2021/04/18 11:27:01;;;;;;;16.40;7.60;;;20.50;41.10;;;;;;5050899;28;20051;-60
2021/04/18 11:30:11;;;;;;;6.07;4.25;;;20.40;40.50;;;;;;5051915;28;20040;-60
2021/04/18 11:33:15;;;;;;;7.93;3.15;;;20.30;40.40;;;;;;5050257;28;20065;-61
2021/04/18 11:36:19;;;;;;;7.18;3.55;;;20.30;40.60;;;;;;5051624;28;20041;-60
2021/04/18 11:39:23;;;;;;;12.95;3.45;;;20.30;40.10;;;;;;5050990;28;20037;-61
2021/04/18 11:42:35;;;;;;;11.55;3.35;;;20.30;40.70;;;;;;5051193;28;20036;-60
2021/04/18 11:45:48;;;;;;;5.60;3.30;;;20.30;41.10;;;;;;5051253;28;20076;-61
2021/04/18 11:48:53;;;;;;;9.27;3.42;;;20.30;41.20;;;;;;5051559;28;20040;-61
2021/04/18 11:51:57;;;;;;;5.30;3.00;;;20.20;41.40;;;;;;5051286;28;20396;-61
2021/04/18 11:55:01;;;;;;;9.80;2.80;;;20.20;41.30;;;;;;5051251;28;20052;-61
2021/04/18 11:58:06;;;;;;;7.05;2.97;;;20.20;39.70;;;;;;5050333;28;20510;-61
2021/04/18 12:01:13;;;;;;;8.00;3.10;;;20.10;39.40;;;;;;5050992;28;20052;-61
2021/04/18 12:04:17;;;;;;;7.65;3.10;;;20.00;40.80;;;;;;5051298;28;20396;-59
2021/04/18 12:07:21;;;;;;;8.45;2.75;;;20.00;41.70;;;;;;5051265;28;20043;-61
2021/04/18 12:10:25;;;;;;;12.38;3.30;;;19.90;41.20;;;;;;5051377;28;20048;-60
2021/04/18 12:13:29;;;;;;;7.57;3.40;;;19.80;42.20;;;;;;5051137;28;20040;-61
2021/04/18 12:16:34;;;;;;;10.93;5.13;;;19.70;43.50;;;;;;5050884;28;20036;-61
2021/04/18 12:19:38;;;;;;;9.68;4.38;;;19.50;44.70;;;;;;5050890;28;20040;-61
2021/04/18 12:22:42;;;;;;;9.95;4.53;;;19.40;44.90;;;;;;5051168;28;20056;-60
2021/04/18 12:25:46;;;;;;;6.95;4.40;;;19.30;46.40;;;;;;5049897;28;20060;-61
2021/04/18 12:28:50;;;;;;;9.20;3.33;;;19.20;47.50;;;;;;5050932;28;20044;-60
2021/04/18 12:31:55;;;;;;;6.97;3.88;;;19.10;47.70;;;;;;5051210;28;20064;-61
2021/04/18 12:34:59;;;;;;;10.73;4.10;;;19.00;48.70;;;;;;5050658;28;20041;-62
2021/04/18 12:38:07;;;;;;;9.75;3.90;;;18.90;50.30;;;;;;5052427;28;20036;-60
2021/04/18 12:41:12;;;;;;;11.75;4.05;;;18.70;50.90;;;;;;5054151;28;20052;-60
2021/04/18 12:44:18;;;;;;;9.68;3.95;;;18.60;50.50;;;;;;5053688;28;20036;-60
2021/04/18 12:47:22;;;;;;;4.95;3.40;;;18.50;50.60;;;;;;5054571;28;20518;-61
2021/04/18 12:50:26;;;;;;;9.82;3.42;;;18.50;50.70;;;;;;5054744;28;20401;-61
2021/04/18 12:53:30;;;;;;;14.27;3.47;;;18.40;50.60;;;;;;5054020;28;20048;-60
2021/04/18 12:56:35;;;;;;;8.60;4.20;;;18.20;48.60;;;;;;5054649;28;20052;-61
2021/04/18 12:59:39;;;;;;;8.27;3.42;;;18.20;49.10;;;;;;5053485;28;20048;-59
2021/04/18 13:02:43;;;;;;;6.55;3.25;;;18.10;48.80;;;;;;5054578;28;20048;-62
2021/04/18 13:05:50;;;;;;;15.55;4.05;;;18.00;49.40;;;;;;5054206;28;20542;-61
2021/04/18 13:08:54;;;;;;;9.90;3.47;;;18.00;50.20;;;;;;5054470;28;20048;-61
2021/04/18 13:11:58;;;;;;;8.35;3.17;;;18.00;50.30;;;;;;5054102;28;20507;-61
2021/04/18 13:15:06;;;;;;;7.13;3.30;;;17.90;48.70;;;;;;5054114;28;20036;-61
2021/04/18 13:18:10;;;;;;;4.88;3.08;;;17.90;49.90;;;;;;5054080;28;20048;-61
2021/04/18 13:21:16;;;;;;;10.85;3.53;;;17.90;49.50;;;;;;5053947;28;20036;-60
2021/04/18 13:24:20;;;;;;;5.97;3.35;;;17.80;50.20;;;;;;5054058;28;20048;-61
2021/04/18 13:27:24;;;;;;;8.05;3.47;;;17.80;51.80;;;;;;5053970;28;20048;-61
2021/04/18 13:30:28;;;;;;;6.38;3.33;;;17.70;52.40;;;;;;5054206;28;20396;-62
2021/04/18 13:33:32;;;;;;;7.97;3.50;;;17.70;53.00;;;;;;5054036;28;20495;-61
2021/04/18 13:36:36;;;;;;;6.40;3.00;;;17.60;54.70;;;;;;5053684;28;20044;-61
2021/04/18 13:39:40;;;;;;;4.78;3.28;;;17.50;54.60;;;;;;5053975;28;20047;-61
2021/04/18 13:42:45;;;;;;;8.95;4.00;;;17.50;54.90;;;;;;5053842;28;20040;-61
2021/04/18 13:45:50;;;;;;;9.68;3.97;;;17.40;56.30;;;;;;5053502;28;20610;-60
2021/04/18 13:48:53;;;;;;;9.23;4.00;;;17.30;56.00;;;;;;5053238;28;20497;-61
2021/04/18 13:51:58;;;;;;;7.28;3.47;;;17.30;53.80;;;;;;5053518;28;20503;-60
2021/04/18 13:55:04;;;;;;;8.30;3.75;;;17.30;54.50;;;;;;5053202;28;20044;-61
2021/04/18 13:58:08;;;;;;;12.40;3.47;;;17.30;54.30;;;;;;5041149;28;20043;-61
2021/04/18 14:01:12;;;;;;;9.98;4.18;;;17.30;51.50;;;;;;5053231;28;20064;-61
2021/04/18 14:04:17;;;;;;;11.40;4.22;;;17.30;51.30;;;;;;5053359;28;20044;-61
2021/04/18 14:07:22;;;;;;;11.43;4.07;;;17.30;50.80;;;;;;5053334;28;20416;-61
2021/04/18 14:10:29;;;;;;;12.00;3.88;;;17.30;51.00;;;;;;5053166;28;20040;-61
2021/04/18 14:13:33;;;;;;;10.10;3.42;;;17.30;52.70;;;;;;5053191;28;20056;-61
2021/04/18 14:16:51;;;;;;;7.53;4.07;;;17.30;51.80;;;;;;5052808;28;20048;-61
2021/04/18 14:20:00;;;;;;;35.30;23.80;;;17.30;51.90;;;;;;5052821;28;20099;-61
2021/04/18 14:23:03;;;;;;;9.48;4.45;;;17.30;51.30;;;;;;5053125;28;20056;-61
2021/04/18 14:26:07;;;;;;;9.02;3.60;;;17.30;51.20;;;;;;5051720;28;20056;-61
2021/04/18 14:29:11;;;;;;;6.72;3.28;;;17.20;51.20;;;;;;5052579;28;20040;-61
2021/04/18 14:32:15;;;;;;;5.05;3.35;;;17.20;52.00;;;;;;5052724;28;20061;-60
2021/04/18 14:35:20;;;;;;;7.57;3.42;;;17.20;52.60;;;;;;5052647;28;20048;-61
2021/04/18 14:38:25;;;;;;;7.10;3.33;;;17.10;52.10;;;;;;5052379;28;20048;-61
2021/04/18 14:41:30;;;;;;;9.10;4.07;;;17.10;52.10;;;;;;5052412;28;20051;-61
2021/04/18 14:44:34;;;;;;;8.98;3.63;;;17.00;52.00;;;;;;5052544;28;20040;-61
2021/04/18 14:47:39;;;;;;;7.60;4.22;;;17.00;52.60;;;;;;5052388;28;20112;-61
2021/04/18 14:50:43;;;;;;;7.13;3.85;;;16.90;52.40;;;;;;5052339;28;20036;-61
2021/04/18 14:53:47;;;;;;;11.98;4.68;;;16.90;52.40;;;;;;5052136;28;20040;-61
2021/04/18 14:56:51;;;;;;;11.50;6.65;;;16.80;52.50;;;;;;5052170;28;20423;-61
2021/04/18 14:59:55;;;;;;;9.32;4.90;;;16.80;52.90;;;;;;5051771;28;20044;-61
2021/04/18 15:03:03;;;;;;;8.27;4.60;;;16.80;52.80;;;;;;5051119;28;20048;-62
2021/04/18 15:06:07;;;;;;;12.07;4.70;;;16.90;52.70;;;;;;5051877;28;20056;-61
2021/04/18 15:09:11;;;;;;;10.75;4.70;;;16.90;52.30;;;;;;5051807;28;20044;-60
2021/04/18 15:12:15;;;;;;;12.48;4.85;;;16.90;52.60;;;;;;5051952;28;20063;-61
2021/04/18 15:15:21;;;;;;;13.85;4.72;;;16.90;53.70;;;;;;5051802;28;20136;-61
2021/04/18 15:18:26;;;;;;;7.70;4.32;;;16.90;54.40;;;;;;5051527;28;20052;-61
2021/04/18 15:21:30;;;;;;;16.00;4.70;;;16.90;56.10;;;;;;5051378;28;20048;-61
2021/04/18 15:24:34;;;;;;;9.98;4.63;;;16.90;56.50;;;;;;5050884;28;20059;-61
2021/04/18 15:27:42;;;;;;;19.30;8.93;;;17.00;55.90;;;;;;5051825;28;20048;-61
2021/04/18 15:30:48;;;;;;;9.25;4.88;;;17.00;55.50;;;;;;5051277;28;20040;-62
2021/04/18 15:33:52;;;;;;;11.02;4.25;;;17.10;56.80;;;;;;5050528;28;20064;-62
2021/04/18 15:36:56;;;;;;;17.88;5.30;;;17.10;62.20;;;;;;5051643;28;20052;-60
2021/04/18 15:40:00;;;;;;;10.77;5.45;;;17.10;64.00;;;;;;5051494;28;20055;-62
2021/04/18 15:43:05;;;;;;;8.00;4.68;;;17.10;64.50;;;;;;5050447;28;20155;-62
2021/04/18 15:46:10;;;;;;;9.60;4.93;;;17.10;62.30;;;;;;5051141;28;20451;-60
2021/04/18 15:49:14;;;;;;;16.10;12.32;;;17.10;61.90;;;;;;5051397;28;20044;-61
2021/04/18 15:52:18;;;;;;;8.52;5.15;;;17.10;60.70;;;;;;5051513;28;20055;-69
2021/04/18 15:55:22;;;;;;;9.63;4.55;;;17.00;59.20;;;;;;5052092;28;20051;-69